Arnesen, Minnesota
Current Conditions -  °F | °C
As of 7:14 PM on Tuesday 21 Oct 2014 (Local Time) from KRRT Reporting Station
Clear Clear  
Wind Chill: 11°   Ceiling: Unl
Heat Index: 11°   Visibility: 10mi
Dew Point:   Wind: 13mph
Humidity: 62%   Direction: 130°SE
Pressure: 29.96"   Gusts: NA
Location:  48.6345°N, 95.1786°W
Report Text: KRRT 220014Z AUTO 13011KT 10SM CLR 11/04 A2996 RMK AO2
Loading
Personal Weather Stations






























Interactive Weather Map
Tropical Storm Tracking
New forecast layout! Learn more

10-Day Weather Forecast

Advertisements
Track Severe Weather on mobile